aviador You're here:

GMFO Decoded Metar

OUJDA in MOROCCO
Report Time2018-01-17 18:00:00
UTC Time2018-01-17 18:16:09
Flight Rules vfr VFR
Wind080° at 03 kt
W.Decomp.*RWY 06: 2.8 kt HW 1.1 kt RCW
RWY 13: 2.0 kt HW 2.3 kt LCW
W.Rank080° ranks 28
Current wind is below 080° avg. (5.7)
Visibility9999 m
Phenomena:N/A
Clouds:N/A
Expected CloudBase > 3,600 ft AGL from Temp-Dew spread
CeilingNone
Temp13°C (ISA +1)
Dew Point04°C (55% RH)
AAT10.6°C
QNH1021 hPa
Density Alt1,516 ft
Elevation1,542 ft
Report Wrong Elevation
Raw Report
GMFO 171800Z 08003KT 040V170 CAVOK 13/04 Q1021 NOSIG=

Extra information for GMFO:More info

Metar Taf Metar & Taf Last 4 Metars F.Rules Stats Wind Profile Meteogram Temp Stats Airport Information Weather charts Add Link Nearby VenuesMetar ALERT Operation Metar Decoded Social comments